createdAt,value
2018-07-03T00:01:49.013Z,4.90
2018-07-03T00:04:20.527Z,5.35
2018-07-03T00:06:49.662Z,4.65
2018-07-03T00:09:17.991Z,4.10
2018-07-03T00:11:48.890Z,4.05
2018-07-03T00:14:17.539Z,3.35
2018-07-03T00:17:03.993Z,3.75
2018-07-03T00:19:32.197Z,5.62
2018-07-03T00:22:00.577Z,5.80
2018-07-03T00:24:29.463Z,5.80
2018-07-03T00:26:57.898Z,5.87
2018-07-03T00:29:25.948Z,6.15
2018-07-03T00:31:54.361Z,6.17
2018-07-03T00:34:22.898Z,4.70
2018-07-03T00:36:51.323Z,5.80
2018-07-03T00:39:21.495Z,5.60
2018-07-03T00:41:47.763Z,4.80
2018-07-03T00:44:15.980Z,4.83
2018-07-03T00:46:44.427Z,5.67
2018-07-03T00:49:12.459Z,4.90
2018-07-03T00:51:40.798Z,5.27
2018-07-03T00:54:09.264Z,5.47
2018-07-03T00:56:37.316Z,4.50
2018-07-03T00:59:09.122Z,4.37
2018-07-03T01:01:37.458Z,4.80
2018-07-03T01:04:05.806Z,6.13
2018-07-03T01:06:34.101Z,5.28
2018-07-03T01:09:02.573Z,5.20
2018-07-03T01:11:31.037Z,5.10
2018-07-03T01:13:59.324Z,4.80
2018-07-03T01:16:27.662Z,8.40
2018-07-03T01:18:55.947Z,9.47
2018-07-03T01:21:24.266Z,10.67
2018-07-03T01:23:52.637Z,7.50
2018-07-03T01:26:20.943Z,18.05
2018-07-03T01:28:49.291Z,22.37
2018-07-03T01:31:17.617Z,19.45
2018-07-03T01:33:45.885Z,23.32
2018-07-03T01:36:14.316Z,16.43
2018-07-03T01:38:42.365Z,19.97
2018-07-03T01:41:10.713Z,22.67
2018-07-03T01:43:38.770Z,22.37
2018-07-03T01:46:07.198Z,29.07
2018-07-03T01:48:35.591Z,29.00
2018-07-03T01:51:06.714Z,13.78
2018-07-03T01:53:35.024Z,13.77
2018-07-03T01:56:04.755Z,14.30
2018-07-03T01:58:33.062Z,23.73
2018-07-03T02:01:02.110Z,14.40
2018-07-03T02:03:30.500Z,34.33
2018-07-03T02:05:58.796Z,13.57
2018-07-03T02:08:27.126Z,28.87
2018-07-03T02:10:55.419Z,26.07
2018-07-03T02:13:23.768Z,16.07
2018-07-03T02:15:52.132Z,26.50
2018-07-03T02:18:20.445Z,21.00
2018-07-03T02:20:48.761Z,21.43
2018-07-03T02:23:17.103Z,9.33
2018-07-03T02:25:45.403Z,18.13
2018-07-03T02:28:13.918Z,10.63
2018-07-03T02:30:41.991Z,14.97
2018-07-03T02:33:10.064Z,13.67
2018-07-03T02:35:38.162Z,25.47
2018-07-03T02:38:06.867Z,20.37
2018-07-03T02:40:35.269Z,22.93
2018-07-03T02:43:03.633Z,25.07
2018-07-03T02:45:32.010Z,16.30
2018-07-03T02:48:00.343Z,34.93
2018-07-03T02:50:28.674Z,22.33
2018-07-03T02:52:56.994Z,10.70
2018-07-03T02:55:26.283Z,9.53
2018-07-03T02:57:54.600Z,20.97
2018-07-03T03:00:22.926Z,11.30
2018-07-03T03:02:51.242Z,9.00
2018-07-03T03:05:19.271Z,21.03
2018-07-03T03:07:47.650Z,24.10
2018-07-03T03:10:15.983Z,31.60
2018-07-03T03:12:44.263Z,21.57
2018-07-03T03:15:12.727Z,17.60
2018-07-03T03:17:41.031Z,11.33
2018-07-03T03:20:09.376Z,19.03
2018-07-03T03:22:37.417Z,10.10
2018-07-03T03:25:05.835Z,21.17
2018-07-03T03:27:34.225Z,14.83
2018-07-03T03:30:02.561Z,21.77
2018-07-03T03:32:30.930Z,7.93
2018-07-03T03:34:59.177Z,15.23
2018-07-03T03:37:27.595Z,22.83
2018-07-03T03:39:57.268Z,20.90
2018-07-03T03:42:25.562Z,47.67
2018-07-03T03:44:53.895Z,30.37
2018-07-03T03:47:22.254Z,26.53
2018-07-03T03:49:50.300Z,17.20
2018-07-03T03:52:18.644Z,10.90
2018-07-03T03:54:47.060Z,11.43
2018-07-03T03:57:15.377Z,9.90
2018-07-03T03:59:43.699Z,13.30
2018-07-03T04:02:12.095Z,14.15
2018-07-03T04:04:40.114Z,8.97
2018-07-03T04:07:08.244Z,16.10
2018-07-03T04:09:36.564Z,9.87
2018-07-03T04:12:04.892Z,7.80
2018-07-03T04:14:33.264Z,8.30
2018-07-03T04:17:01.580Z,8.50
2018-07-03T04:19:29.610Z,10.17
2018-07-03T04:21:57.938Z,7.87
2018-07-03T04:24:26.005Z,9.23
2018-07-03T04:26:54.050Z,8.07
2018-07-03T04:29:22.383Z,12.27
2018-07-03T04:31:50.665Z,10.82
2018-07-03T04:34:18.967Z,9.17
2018-07-03T04:36:47.282Z,8.53
2018-07-03T04:39:15.575Z,8.60
2018-07-03T04:41:43.895Z,9.17
2018-07-03T04:44:12.220Z,9.33
2018-07-03T04:46:40.277Z,8.90
2018-07-03T04:49:08.327Z,9.30
2018-07-03T04:51:36.654Z,8.97
2018-07-03T04:54:05.034Z,11.68
2018-07-03T04:56:33.364Z,9.20
2018-07-03T04:59:02.271Z,9.63
2018-07-03T05:01:31.451Z,9.87
2018-07-03T05:03:59.761Z,9.40
2018-07-03T05:06:28.126Z,12.37
2018-07-03T05:08:56.176Z,9.93
2018-07-03T05:11:24.541Z,10.00
2018-07-03T05:13:53.084Z,12.80
2018-07-03T05:16:21.390Z,10.17
2018-07-03T05:18:49.695Z,10.43
2018-07-03T05:21:18.061Z,9.77
2018-07-03T05:23:46.391Z,9.73
2018-07-03T05:26:14.825Z,9.83
2018-07-03T05:28:43.161Z,10.60
2018-07-03T05:31:11.514Z,10.70
2018-07-03T05:33:39.556Z,8.97
2018-07-03T05:36:07.975Z,8.43
2018-07-03T05:38:36.266Z,9.03
2018-07-03T05:41:05.702Z,8.03
2018-07-03T05:43:34.057Z,7.67
2018-07-03T05:46:02.594Z,8.67
2018-07-03T05:48:30.972Z,7.17
2018-07-03T05:50:59.376Z,8.30
2018-07-03T05:53:27.481Z,7.90
2018-07-03T05:55:55.491Z,7.27
2018-07-03T05:58:23.865Z,6.83
2018-07-03T06:00:52.171Z,7.95
2018-07-03T06:03:20.318Z,6.63
2018-07-03T06:05:48.727Z,6.10
2018-07-03T06:08:16.791Z,7.77
2018-07-03T06:10:44.866Z,8.63
2018-07-03T06:13:12.991Z,8.47
2018-07-03T06:15:41.348Z,7.77
2018-07-03T06:18:11.166Z,9.50
2018-07-03T06:20:41.018Z,6.30
2018-07-03T06:23:10.854Z,6.70
2018-07-03T06:25:40.789Z,5.17
2018-07-03T06:28:09.762Z,4.80
2018-07-03T06:30:37.803Z,4.37
2018-07-03T06:33:06.222Z,5.10
2018-07-03T06:35:34.323Z,4.55
2018-07-03T06:38:02.669Z,5.03
2018-07-03T06:40:30.694Z,6.17
2018-07-03T06:42:59.081Z,4.65
2018-07-03T06:45:28.491Z,5.27
2018-07-03T06:48:00.423Z,6.10
2018-07-03T06:50:28.797Z,3.50
2018-07-03T06:52:57.119Z,3.30
2018-07-03T06:55:26.887Z,5.57
2018-07-03T06:57:55.236Z,6.12
2018-07-03T07:00:23.661Z,4.97
2018-07-03T07:02:52.013Z,7.60
2018-07-03T07:05:20.422Z,5.37
2018-07-03T07:07:48.786Z,5.20
2018-07-03T07:10:17.141Z,6.42
2018-07-03T07:12:45.522Z,4.53
2018-07-03T07:15:13.861Z,5.27
2018-07-03T07:17:42.206Z,3.77
2018-07-03T07:20:11.754Z,7.80
2018-07-03T07:22:39.814Z,6.30
2018-07-03T07:25:08.230Z,5.10
2018-07-03T07:27:36.317Z,7.58
2018-07-03T07:30:06.068Z,2.63
2018-07-03T07:32:38.355Z,3.87
2018-07-03T07:35:07.802Z,4.58
2018-07-03T07:37:36.188Z,4.17
2018-07-03T07:40:04.456Z,3.15
2018-07-03T07:42:33.216Z,3.70
2018-07-03T07:45:01.595Z,2.33
2018-07-03T07:47:29.620Z,3.45
2018-07-03T07:49:59.958Z,8.23
2018-07-03T07:52:26.371Z,4.97
2018-07-03T07:54:54.703Z,3.75
2018-07-03T07:57:23.008Z,3.77
2018-07-03T07:59:51.322Z,6.23
2018-07-03T08:02:19.632Z,3.17
2018-07-03T08:04:47.772Z,5.07
2018-07-03T08:07:16.085Z,4.72
2018-07-03T08:09:44.134Z,4.53
2018-07-03T08:12:12.900Z,5.65
2018-07-03T08:14:41.258Z,3.83
2018-07-03T08:17:09.686Z,4.78
2018-07-03T08:19:38.070Z,3.62
2018-07-03T08:22:09.609Z,4.05
2018-07-03T08:24:37.912Z,1.47
2018-07-03T08:27:06.014Z,3.30
2018-07-03T08:29:34.400Z,2.83
2018-07-03T08:32:02.725Z,3.15
2018-07-03T08:34:32.133Z,3.60
2018-07-03T08:37:02.107Z,2.33
2018-07-03T08:39:30.467Z,1.95
2018-07-03T08:41:59.920Z,3.45
2018-07-03T08:44:30.029Z,1.30
2018-07-03T08:46:58.389Z,2.30
2018-07-03T08:49:32.946Z,2.83
2018-07-03T08:52:01.440Z,2.02
2018-07-03T08:54:29.405Z,3.62
2018-07-03T08:56:57.815Z,2.07
2018-07-03T08:59:25.846Z,3.90
2018-07-03T09:01:54.200Z,1.45
2018-07-03T09:04:22.606Z,3.65
2018-07-03T09:06:51.767Z,1.20
2018-07-03T09:09:20.135Z,3.03
2018-07-03T09:11:48.532Z,2.42
2018-07-03T09:14:16.902Z,2.98
2018-07-03T09:16:45.221Z,3.80
2018-07-03T09:19:13.592Z,3.20
2018-07-03T09:21:42.363Z,2.92
2018-07-03T09:24:12.787Z,1.75
2018-07-03T09:26:41.453Z,1.30
2018-07-03T09:29:12.502Z,2.12
2018-07-03T09:31:40.859Z,9.48
2018-07-03T09:34:10.136Z,1.40
2018-07-03T09:36:38.179Z,1.82
2018-07-03T09:39:09.482Z,1.82
2018-07-03T09:41:38.498Z,2.50
2018-07-03T09:44:08.118Z,3.55
2018-07-03T09:46:36.422Z,1.32
2018-07-03T09:49:06.786Z,1.25
2018-07-03T09:51:35.085Z,1.70
2018-07-03T09:54:03.430Z,1.77
2018-07-03T09:56:32.559Z,1.52
2018-07-03T09:59:00.917Z,1.45
2018-07-03T10:01:29.322Z,0.90
2018-07-03T10:03:57.694Z,1.90
2018-07-03T10:06:26.033Z,1.32
2018-07-03T10:08:54.108Z,2.77
2018-07-03T10:11:25.474Z,5.95
2018-07-03T10:13:53.807Z,1.40
2018-07-03T10:16:22.180Z,2.65
2018-07-03T10:18:50.547Z,2.08
2018-07-03T10:21:18.925Z,4.97
2018-07-03T10:23:47.241Z,2.77
2018-07-03T10:26:15.357Z,3.90
2018-07-03T10:28:43.739Z,2.92
2018-07-03T10:31:11.807Z,2.98
2018-07-03T10:33:40.177Z,3.20
2018-07-03T10:36:11.455Z,1.50
2018-07-03T10:38:39.753Z,2.87
2018-07-03T10:41:08.386Z,2.50
2018-07-03T10:43:38.423Z,1.87
2018-07-03T10:46:06.789Z,2.10
2018-07-03T10:48:35.184Z,2.05
2018-07-03T10:51:03.260Z,2.12
2018-07-03T10:53:31.638Z,1.85
2018-07-03T10:56:01.320Z,2.15
2018-07-03T10:58:31.293Z,2.00
2018-07-03T11:00:59.764Z,2.27
2018-07-03T11:03:28.115Z,3.12
2018-07-03T11:05:56.511Z,1.80
2018-07-03T11:08:28.207Z,2.45
2018-07-03T11:10:56.391Z,3.60
2018-07-03T11:13:26.197Z,3.62
2018-07-03T11:15:54.542Z,1.72
2018-07-03T11:18:22.951Z,3.70
2018-07-03T11:20:51.281Z,2.40
2018-07-03T11:23:19.590Z,1.50
2018-07-03T11:25:49.141Z,2.83
2018-07-03T11:28:17.489Z,2.45
2018-07-03T11:30:45.834Z,2.12
2018-07-03T11:33:14.381Z,2.55
2018-07-03T11:35:42.746Z,1.82
2018-07-03T11:38:10.796Z,2.55
2018-07-03T11:40:39.156Z,2.67
2018-07-03T11:43:07.528Z,4.33
2018-07-03T11:45:35.937Z,3.52
2018-07-03T11:48:04.312Z,2.62
2018-07-03T11:50:32.652Z,1.37
2018-07-03T11:53:00.962Z,1.70
2018-07-03T11:55:29.314Z,2.22
2018-07-03T11:57:59.152Z,1.87
2018-07-03T12:00:27.590Z,4.15
2018-07-03T12:02:55.984Z,1.32
2018-07-03T12:05:24.328Z,7.58
2018-07-03T12:07:52.453Z,3.92
2018-07-03T12:10:20.823Z,2.83
2018-07-03T12:12:49.212Z,4.95
2018-07-03T12:15:17.596Z,3.25
2018-07-03T12:17:45.959Z,4.33
2018-07-03T12:20:14.325Z,3.15
2018-07-03T12:22:42.708Z,5.67
2018-07-03T12:25:11.077Z,2.75
2018-07-03T12:27:39.447Z,5.58
2018-07-03T12:30:10.617Z,6.47
2018-07-03T12:32:38.931Z,2.85
2018-07-03T12:35:12.954Z,2.65
2018-07-03T12:37:41.092Z,2.77
2018-07-03T12:40:10.897Z,4.08
2018-07-03T12:42:44.932Z,4.80
2018-07-03T12:45:13.283Z,3.50
2018-07-03T12:47:41.629Z,5.60
2018-07-03T12:50:09.716Z,5.00
2018-07-03T12:52:38.055Z,5.35
2018-07-03T12:55:06.419Z,4.97
2018-07-03T12:57:34.768Z,5.92
2018-07-03T13:00:03.242Z,5.53
2018-07-03T13:02:31.576Z,5.80
2018-07-03T13:04:59.667Z,6.85
2018-07-03T13:07:28.980Z,6.33
2018-07-03T13:09:57.379Z,6.65
2018-07-03T13:12:25.757Z,7.95
2018-07-03T13:14:54.040Z,6.55
2018-07-03T13:17:22.491Z,7.37
2018-07-03T13:19:50.533Z,7.80
2018-07-03T13:22:18.685Z,7.25
2018-07-03T13:24:48.093Z,8.08
2018-07-03T13:27:16.422Z,8.60
2018-07-03T13:29:44.725Z,7.85
2018-07-03T13:32:13.124Z,8.48
2018-07-03T13:34:41.473Z,7.42
2018-07-03T13:37:09.891Z,7.00
2018-07-03T13:39:38.283Z,7.47
2018-07-03T13:42:06.421Z,7.25
2018-07-03T13:44:34.680Z,8.48
2018-07-03T13:47:03.422Z,9.30
2018-07-03T13:49:33.314Z,9.35
2018-07-03T13:52:01.754Z,9.67
2018-07-03T13:54:31.362Z,8.93
2018-07-03T13:56:59.679Z,9.48
2018-07-03T13:59:29.000Z,8.88
2018-07-03T14:01:57.127Z,8.63
2018-07-03T14:04:25.474Z,9.40
2018-07-03T14:06:53.770Z,9.40
2018-07-03T14:09:22.162Z,10.30
2018-07-03T14:11:50.508Z,9.00
2018-07-03T14:14:18.885Z,9.85
2018-07-03T14:16:47.859Z,10.05
2018-07-03T14:19:16.247Z,10.68
2018-07-03T14:21:44.370Z,10.68
2018-07-03T14:24:12.655Z,10.82
2018-07-03T14:26:40.991Z,10.72
2018-07-03T14:29:10.798Z,11.38
2018-07-03T14:31:39.174Z,11.05
2018-07-03T14:34:07.431Z,11.35
2018-07-03T14:36:38.297Z,11.03
2018-07-03T14:39:09.931Z,11.55
2018-07-03T14:41:38.059Z,11.05
2018-07-03T14:44:11.365Z,11.70
2018-07-03T14:46:49.143Z,11.15
2018-07-03T14:49:18.621Z,12.03
2018-07-03T14:51:50.206Z,11.83
2018-07-03T14:54:20.223Z,12.23
2018-07-03T14:56:50.895Z,12.00
2018-07-03T14:59:19.357Z,12.25
2018-07-03T15:01:48.169Z,11.27
2018-07-03T15:04:16.497Z,11.15
2018-07-03T15:06:55.281Z,11.28
2018-07-03T15:09:23.347Z,10.90
2018-07-03T15:11:51.401Z,10.70
2018-07-03T15:14:19.819Z,10.78
2018-07-03T15:16:51.451Z,11.75
2018-07-03T15:19:39.613Z,10.78
2018-07-03T15:22:07.959Z,11.60
2018-07-03T15:24:38.441Z,10.85
2018-07-03T15:27:06.889Z,21.00
2018-07-03T15:29:36.645Z,22.32
2018-07-03T15:32:06.757Z,17.30
2018-07-03T15:34:36.490Z,17.70
2018-07-03T15:37:04.950Z,17.85
2018-07-03T15:39:33.293Z,14.53
2018-07-03T15:42:03.532Z,20.37
2018-07-03T15:45:08.076Z,16.32
2018-07-03T15:47:37.737Z,16.15
2018-07-03T15:50:04.856Z,13.48
2018-07-03T15:52:33.418Z,10.80
2018-07-03T15:55:01.522Z,9.98
2018-07-03T15:57:31.095Z,10.72
2018-07-03T16:00:02.213Z,10.20
2018-07-03T16:02:33.452Z,8.50
2018-07-03T16:05:38.072Z,9.40
2018-07-03T16:08:14.443Z,9.40
2018-07-03T16:14:11.124Z,9.18
2018-07-03T16:16:47.956Z,9.93
2018-07-03T16:19:35.323Z,8.93
2018-07-03T16:22:04.828Z,8.05
2018-07-03T16:24:34.435Z,8.68
2018-07-03T16:27:06.530Z,7.78
2018-07-03T16:29:35.163Z,7.03
2018-07-03T16:32:04.663Z,6.97
2018-07-03T16:34:35.338Z,6.53
2018-07-03T16:37:16.048Z,6.85
2018-07-03T16:39:55.235Z,6.58
2018-07-03T16:42:24.959Z,6.28
2018-07-03T16:44:53.314Z,6.30
2018-07-03T16:47:21.797Z,6.40
2018-07-03T16:49:51.619Z,7.17
2018-07-03T16:52:20.946Z,6.20
2018-07-03T16:54:49.369Z,10.85
2018-07-03T16:57:19.119Z,6.97
2018-07-03T16:59:47.548Z,6.35
2018-07-03T17:02:17.442Z,6.30
2018-07-03T17:04:57.603Z,5.78
2018-07-03T17:07:31.847Z,6.05
2018-07-03T17:10:10.227Z,10.38
2018-07-03T17:15:23.765Z,4.92
2018-07-03T17:18:00.884Z,5.05
2018-07-03T17:20:29.240Z,4.85
2018-07-03T17:22:59.296Z,4.70
2018-07-03T17:25:28.301Z,5.05
2018-07-03T17:27:57.948Z,5.65
2018-07-03T17:30:27.708Z,4.97
2018-07-03T17:32:56.337Z,4.42
2018-07-03T17:35:26.263Z,5.12
2018-07-03T17:37:57.808Z,4.08
2018-07-03T17:41:04.148Z,4.28
2018-07-03T17:44:20.321Z,4.67
2018-07-03T17:46:48.442Z,4.70
2018-07-03T17:49:17.886Z,4.40
2018-07-03T17:51:46.276Z,5.25
2018-07-03T17:54:16.696Z,4.80
2018-07-03T17:56:45.162Z,4.83
2018-07-03T17:59:15.749Z,4.70
2018-07-03T18:01:43.849Z,4.22
2018-07-03T18:04:13.155Z,4.15
2018-07-03T18:06:41.583Z,4.45
2018-07-03T18:09:10.663Z,3.92
2018-07-03T18:11:39.134Z,4.08
2018-07-03T18:14:07.902Z,5.37
2018-07-03T18:16:37.623Z,3.67
2018-07-03T18:19:47.761Z,5.53
2018-07-03T18:22:24.860Z,5.70
2018-07-03T18:24:55.735Z,4.10
2018-07-03T18:27:23.476Z,5.30
2018-07-03T18:29:51.863Z,3.93
2018-07-03T18:32:26.753Z,5.17
2018-07-03T18:34:58.275Z,4.78
2018-07-03T18:37:27.998Z,4.65
2018-07-03T18:39:59.553Z,4.20
2018-07-03T18:42:34.025Z,4.00
2018-07-03T18:45:04.489Z,4.85
2018-07-03T18:47:39.030Z,3.47
2018-07-03T18:50:13.866Z,3.92
2018-07-03T18:52:44.393Z,5.17
2018-07-03T18:55:28.028Z,5.12
2018-07-03T18:58:07.219Z,3.55
2018-07-03T19:04:03.084Z,3.35
2018-07-03T19:06:34.896Z,5.47
2018-07-03T19:09:04.497Z,4.37
2018-07-03T19:11:34.969Z,2.70
2018-07-03T19:14:03.188Z,4.00
2018-07-03T19:16:36.326Z,5.28
2018-07-03T19:19:09.241Z,6.00
2018-07-03T19:21:37.372Z,3.95
2018-07-03T19:24:05.977Z,2.62
2018-07-03T19:26:39.717Z,3.35
2018-07-03T19:29:11.953Z,3.80
2018-07-03T19:31:39.853Z,5.03
2018-07-03T19:34:10.560Z,3.20
2018-07-03T19:36:38.751Z,6.83
2018-07-03T19:39:09.574Z,8.08
2018-07-03T19:41:38.014Z,3.40
2018-07-03T19:44:09.860Z,6.70
2018-07-03T19:46:37.977Z,5.65
2018-07-03T19:49:08.906Z,4.25
2018-07-03T19:51:37.568Z,6.25
2018-07-03T19:54:06.182Z,5.72
2018-07-03T19:56:36.216Z,4.30
2018-07-03T19:59:04.874Z,7.90
2018-07-03T20:01:39.280Z,6.28
2018-07-03T20:04:10.259Z,3.67
2018-07-03T20:06:39.171Z,6.62
2018-07-03T20:09:12.629Z,4.75
2018-07-03T20:11:44.054Z,4.30
2018-07-03T20:14:12.398Z,6.60
2018-07-03T20:16:41.069Z,6.08
2018-07-03T20:19:13.537Z,5.72
2018-07-03T20:21:43.852Z,7.80
2018-07-03T20:24:12.043Z,6.87
2018-07-03T20:26:40.708Z,5.15
2018-07-03T20:29:09.841Z,5.58
2018-07-03T20:31:39.478Z,5.85
2018-07-03T20:34:08.464Z,6.60
2018-07-03T20:36:38.134Z,6.00
2018-07-03T20:39:10.337Z,5.20
2018-07-03T20:41:39.867Z,8.58
2018-07-03T20:44:09.613Z,5.65
2018-07-03T20:46:37.676Z,6.78
2018-07-03T20:49:05.888Z,6.97
2018-07-03T20:51:44.989Z,5.62
2018-07-03T20:54:13.421Z,6.97
2018-07-03T20:56:41.797Z,5.90
2018-07-03T20:59:11.226Z,7.25
2018-07-03T21:01:41.335Z,5.37
2018-07-03T21:04:09.852Z,7.17
2018-07-03T21:06:39.151Z,8.20
2018-07-03T21:09:11.000Z,6.40
2018-07-03T21:11:39.462Z,7.33
2018-07-03T21:14:09.408Z,5.03
2018-07-03T21:16:37.494Z,5.70
2018-07-03T21:19:07.356Z,5.75
2018-07-03T21:21:37.273Z,5.15
2018-07-03T21:24:06.806Z,7.70
2018-07-03T21:27:18.335Z,6.75
2018-07-03T21:29:51.377Z,5.72
2018-07-03T21:32:19.777Z,5.65
2018-07-03T21:34:49.627Z,4.85
2018-07-03T21:37:18.021Z,6.97
2018-07-03T21:39:49.177Z,4.17
2018-07-03T21:42:18.604Z,3.67
2018-07-03T21:44:48.539Z,6.60
2018-07-03T21:47:20.058Z,7.75
2018-07-03T21:49:48.412Z,5.95
2018-07-03T21:52:16.828Z,4.85
2018-07-03T21:55:03.718Z,6.70
2018-07-03T21:57:33.269Z,6.87
2018-07-03T22:00:01.768Z,7.83
2018-07-03T22:02:40.536Z,6.67
2018-07-03T22:05:10.381Z,5.35
2018-07-03T22:07:39.684Z,6.17
2018-07-03T22:10:11.050Z,8.03
2018-07-03T22:12:39.500Z,6.42
2018-07-03T22:15:13.340Z,6.40
2018-07-03T22:17:42.353Z,5.95
2018-07-03T22:20:10.711Z,5.17
2018-07-03T22:22:38.810Z,5.83
2018-07-03T22:25:08.829Z,6.85
2018-07-03T22:27:38.582Z,5.80
2018-07-03T22:30:08.405Z,6.80
2018-07-03T22:32:36.833Z,9.35
2018-07-03T22:35:15.314Z,8.20
2018-07-03T22:37:44.937Z,6.50
2018-07-03T22:40:13.109Z,8.45
2018-07-03T22:42:41.180Z,6.47
2018-07-03T22:45:10.588Z,5.50
2018-07-03T22:47:40.293Z,6.22
2018-07-03T22:50:09.521Z,9.25
2018-07-03T22:52:37.958Z,7.78
2018-07-03T22:55:08.140Z,5.78
2018-07-03T22:57:39.654Z,7.90
2018-07-03T23:00:07.867Z,12.20
2018-07-03T23:02:36.245Z,10.25
2018-07-03T23:05:16.871Z,7.15
2018-07-03T23:07:45.408Z,8.90
2018-07-03T23:10:14.944Z,8.25
2018-07-03T23:12:46.364Z,6.97
2018-07-03T23:15:14.744Z,7.87
2018-07-03T23:17:44.873Z,9.08
2018-07-03T23:20:14.521Z,7.12
2018-07-03T23:22:43.789Z,8.28
2018-07-03T23:25:14.937Z,6.50
2018-07-03T23:27:46.809Z,8.98
2018-07-03T23:30:15.141Z,5.85
2018-07-03T23:32:43.637Z,8.73
2018-07-03T23:35:15.973Z,5.62
2018-07-03T23:37:44.058Z,5.65
2018-07-03T23:40:13.251Z,6.95
2018-07-03T23:42:41.647Z,8.65
2018-07-03T23:45:10.944Z,7.03
2018-07-03T23:48:26.805Z,7.35
2018-07-03T23:51:15.480Z,7.40
2018-07-03T23:54:02.988Z,7.00
2018-07-03T23:56:50.496Z,7.80
2018-07-03T23:59:55.416Z,8.15
